Time;durP1;ratioP1;P1;durP2;ratioP2;P2;SDS_P1;SDS_P2;PMS_P1;PMS_P2;Temp;Humidity;BMP_temperature;BMP_pressure;BME280_temperature;BME280_humidity;BME280_pressure;Samples;Min_cycle;Max_cycle;Signal;HPM_P1;HPM_P2
2022/09/17 00:01:25;;;;;;;2.37;0.90;;;11.70;99.90;;;;;;5035505;28;20217;-57
2022/09/17 00:03:54;;;;;;;0.87;0.80;;;11.70;99.90;;;;;;5035364;28;20249;-57
2022/09/17 00:06:22;;;;;;;1.77;0.67;;;11.70;99.90;;;;;;5034894;28;20210;-57
2022/09/17 00:08:50;;;;;;;2.50;1.10;;;11.70;99.90;;;;;;5035052;28;20202;-57
2022/09/17 00:11:20;;;;;;;3.43;0.80;;;11.70;99.90;;;;;;5035467;28;20265;-57
2022/09/17 00:13:47;;;;;;;2.43;0.80;;;11.70;99.90;;;;;;5035180;28;20757;-57
2022/09/17 00:16:23;;;;;;;3.83;1.10;;;11.60;99.90;;;;;;5034809;28;20252;-57
2022/09/17 00:18:49;;;;;;;2.20;0.70;;;11.60;99.90;;;;;;5035302;28;20210;-57
2022/09/17 00:21:17;;;;;;;1.53;1.03;;;11.60;99.90;;;;;;5035236;28;20293;-57
2022/09/17 00:23:44;;;;;;;1.27;0.80;;;11.70;99.90;;;;;;5035034;28;20222;-57
2022/09/17 00:26:12;;;;;;;1.63;0.70;;;11.80;99.90;;;;;;5034860;28;20252;-57
2022/09/17 00:28:40;;;;;;;2.03;0.90;;;11.90;99.90;;;;;;5035284;28;20264;-57
2022/09/17 00:31:08;;;;;;;0.70;0.60;;;12.00;99.90;;;;;;5034997;28;20206;-57
2022/09/17 00:33:35;;;;;;;0.93;0.40;;;12.00;99.90;;;;;;5034930;28;20234;-57
2022/09/17 00:36:04;;;;;;;1.33;0.53;;;12.10;99.90;;;;;;5034140;28;20280;-57
2022/09/17 00:38:31;;;;;;;0.87;0.47;;;12.20;99.90;;;;;;5035274;28;20210;-57
2022/09/17 00:40:57;;;;;;;1.10;0.70;;;12.30;99.90;;;;;;5034996;28;20211;-57
2022/09/17 00:43:38;;;;;;;6.50;0.97;;;12.40;99.90;;;;;;5034889;28;20284;-57
2022/09/17 00:46:12;;;;;;;2.20;0.70;;;12.40;99.90;;;;;;5034123;28;20260;-57
2022/09/17 00:48:39;;;;;;;0.80;0.53;;;12.50;99.90;;;;;;5034654;28;20236;-57
2022/09/17 00:51:08;;;;;;;3.90;0.80;;;12.60;99.90;;;;;;5034830;28;20268;-57
2022/09/17 00:53:35;;;;;;;0.67;0.60;;;12.60;99.90;;;;;;5034594;28;20242;-57
2022/09/17 00:56:09;;;;;;;0.87;0.60;;;12.50;99.90;;;;;;5033926;28;20206;-57
2022/09/17 00:58:38;;;;;;;1.73;0.60;;;12.60;99.90;;;;;;5034517;28;20214;-57
2022/09/17 01:01:05;;;;;;;3.10;0.77;;;12.60;99.90;;;;;;5034379;28;20206;-57
2022/09/17 01:03:32;;;;;;;1.80;0.60;;;12.70;99.90;;;;;;5034508;28;20309;-57
2022/09/17 01:06:12;;;;;;;2.10;0.70;;;12.80;99.90;;;;;;5033903;28;20296;-57
2022/09/17 01:08:51;;;;;;;4.10;0.90;;;12.70;99.90;;;;;;5034423;28;20210;-57
2022/09/17 01:11:44;;;;;;;4.43;0.90;;;12.70;99.90;;;;;;5034277;28;20642;-57
2022/09/17 01:14:25;;;;;;;4.17;1.03;;;12.80;99.90;;;;;;5034220;28;20238;-57
2022/09/17 01:16:59;;;;;;;1.17;0.90;;;12.70;99.90;;;;;;5033589;28;20214;-56
2022/09/17 01:20:02;;;;;;;2.97;0.63;;;12.70;99.90;;;;;;5034173;28;20213;-57
2022/09/17 01:22:34;;;;;;;3.10;0.70;;;12.60;99.90;;;;;;5034047;28;20216;-58
2022/09/17 01:25:21;;;;;;;2.73;0.70;;;12.50;99.90;;;;;;5033359;28;20202;-55
2022/09/17 01:28:17;;;;;;;1.20;0.80;;;12.40;99.90;;;;;;5033918;28;20252;-57
2022/09/17 01:31:22;;;;;;;2.37;0.77;;;12.50;99.90;;;;;;5033776;28;20206;-55
2022/09/17 01:34:00;;;;;;;1.53;0.77;;;12.40;99.90;;;;;;5029607;28;20234;-56
2022/09/17 01:36:40;;;;;;;1.63;0.70;;;12.40;99.90;;;;;;5033039;28;20229;-56
2022/09/17 01:39:17;;;;;;;3.53;0.97;;;12.50;99.90;;;;;;5033827;28;20205;-56
2022/09/17 01:41:51;;;;;;;2.67;0.87;;;12.50;99.90;;;;;;5033789;28;20629;-56
2022/09/17 01:44:23;;;;;;;1.97;1.60;;;12.40;99.90;;;;;;5034141;28;20226;-56
2022/09/17 01:46:54;;;;;;;2.60;0.80;;;12.40;99.90;;;;;;5032928;28;20302;-55
2022/09/17 01:49:25;;;;;;;2.67;0.90;;;12.30;99.90;;;;;;5033693;28;20213;-56
2022/09/17 01:51:53;;;;;;;1.30;0.90;;;12.40;99.90;;;;;;5033692;28;20683;-56
2022/09/17 01:54:25;;;;;;;1.07;0.80;;;12.40;99.90;;;;;;5033341;28;20317;-56
2022/09/17 01:56:57;;;;;;;1.50;1.07;;;12.50;99.90;;;;;;5032732;28;20217;-56
2022/09/17 01:59:29;;;;;;;1.87;0.77;;;12.50;99.90;;;;;;5033231;28;20206;-56
2022/09/17 02:02:00;;;;;;;2.40;0.83;;;12.30;99.90;;;;;;5032652;28;20575;-56
2022/09/17 02:04:33;;;;;;;3.33;0.77;;;12.20;99.90;;;;;;5032934;28;20299;-56
2022/09/17 02:07:05;;;;;;;2.50;0.93;;;12.20;99.90;;;;;;5033104;28;20240;-55
2022/09/17 02:09:36;;;;;;;5.13;1.00;;;12.10;99.90;;;;;;5034135;28;20611;-56
2022/09/17 02:12:06;;;;;;;4.03;0.77;;;12.00;99.90;;;;;;5033485;28;20194;-55
2022/09/17 02:14:38;;;;;;;1.60;0.83;;;11.90;99.90;;;;;;5032812;28;20241;-55
2022/09/17 02:17:11;;;;;;;1.90;0.73;;;11.80;99.90;;;;;;5032291;28;20256;-55
2022/09/17 02:19:40;;;;;;;2.47;0.80;;;11.80;99.90;;;;;;5032867;28;20256;-55
2022/09/17 02:22:18;;;;;;;1.93;1.00;;;11.70;99.90;;;;;;5032763;28;20210;-55
2022/09/17 02:24:49;;;;;;;2.53;1.30;;;11.60;99.90;;;;;;5032887;28;20230;-55
2022/09/17 02:27:22;;;;;;;2.73;0.97;;;11.60;99.90;;;;;;5032206;28;20215;-57
2022/09/17 02:29:49;;;;;;;2.30;1.07;;;11.50;99.90;;;;;;5032467;28;20206;-55
2022/09/17 02:32:16;;;;;;;1.87;0.80;;;11.50;99.90;;;;;;5032479;28;20214;-56
2022/09/17 02:34:44;;;;;;;2.93;0.97;;;11.40;99.90;;;;;;5032413;28;20288;-56
2022/09/17 02:37:11;;;;;;;2.13;1.00;;;11.30;99.90;;;;;;5031661;28;20619;-55
2022/09/17 02:39:38;;;;;;;3.57;1.20;;;11.30;99.90;;;;;;5032132;28;20264;-56
2022/09/17 02:42:16;;;;;;;3.57;1.60;;;11.30;99.90;;;;;;5032041;28;20213;-56
2022/09/17 02:44:54;;;;;;;1.33;1.00;;;11.30;99.90;;;;;;5032166;28;20276;-56
2022/09/17 02:47:50;;;;;;;1.30;0.90;;;11.40;99.90;;;;;;5031529;28;20328;-56
2022/09/17 02:50:33;;;;;;;2.53;1.20;;;11.40;99.90;;;;;;5028258;28;20209;-56
2022/09/17 02:53:27;;;;;;;1.97;1.20;;;11.50;99.90;;;;;;5032258;28;20233;-56
2022/09/17 02:56:02;;;;;;;3.40;1.37;;;11.40;99.90;;;;;;5024607;28;20206;-56
2022/09/17 02:58:38;;;;;;;1.53;1.10;;;11.40;99.90;;;;;;5032617;28;20210;-56
2022/09/17 03:01:09;;;;;;;2.83;1.00;;;11.40;99.90;;;;;;5032267;28;20643;-56
2022/09/17 03:03:39;;;;;;;3.00;1.00;;;11.40;99.90;;;;;;5032213;28;20272;-56
2022/09/17 03:06:07;;;;;;;5.13;1.50;;;11.40;99.90;;;;;;5031189;28;20206;-55
2022/09/17 03:08:38;;;;;;;2.33;1.33;;;11.50;99.90;;;;;;5032205;28;20214;-56
2022/09/17 03:11:07;;;;;;;3.00;1.10;;;11.60;99.90;;;;;;5032224;28;20206;-56
2022/09/17 03:13:35;;;;;;;2.87;1.27;;;11.60;99.90;;;;;;5031011;28;20245;-56
2022/09/17 03:16:02;;;;;;;0.80;0.80;;;11.70;99.90;;;;;;5031478;28;20293;-56
2022/09/17 03:18:29;;;;;;;4.63;1.10;;;11.70;99.90;;;;;;5031956;28;20633;-56
2022/09/17 03:20:55;;;;;;;3.97;1.00;;;11.80;99.90;;;;;;5032039;28;20552;-56
2022/09/17 03:23:24;;;;;;;1.43;0.90;;;11.80;99.90;;;;;;5031996;28;20234;-56
2022/09/17 03:25:51;;;;;;;7.33;1.27;;;11.90;99.90;;;;;;5031374;28;20210;-56
2022/09/17 03:28:17;;;;;;;3.00;1.10;;;11.90;99.90;;;;;;5032027;28;20236;-56
2022/09/17 03:30:44;;;;;;;2.60;0.97;;;11.90;99.90;;;;;;5032035;28;20236;-55
2022/09/17 03:33:11;;;;;;;4.27;1.13;;;12.00;99.90;;;;;;5031721;28;20230;-55
2022/09/17 03:35:42;;;;;;;5.23;0.90;;;12.10;99.90;;;;;;5031364;28;20248;-55
2022/09/17 03:38:08;;;;;;;2.97;1.20;;;12.10;99.90;;;;;;5032254;28;20206;-55
2022/09/17 03:40:36;;;;;;;3.87;1.20;;;12.20;99.90;;;;;;5032000;28;20206;-55
2022/09/17 03:43:03;;;;;;;8.00;4.73;;;12.20;99.90;;;;;;5031743;28;20233;-55
2022/09/17 03:45:30;;;;;;;3.20;0.90;;;12.20;99.90;;;;;;5030978;28;20299;-56
2022/09/17 03:47:56;;;;;;;2.93;0.90;;;12.20;99.90;;;;;;5031826;28;20217;-56
2022/09/17 03:50:23;;;;;;;3.73;1.30;;;12.10;99.90;;;;;;5031908;28;20210;-56
2022/09/17 03:52:50;;;;;;;2.53;1.43;;;12.10;99.90;;;;;;5031880;28;20203;-56
2022/09/17 03:55:17;;;;;;;4.17;0.93;;;12.20;99.90;;;;;;5031227;28;20222;-56
2022/09/17 03:57:45;;;;;;;4.30;1.10;;;12.10;99.90;;;;;;5032015;28;20213;-56
2022/09/17 04:00:16;;;;;;;3.00;0.93;;;12.00;99.90;;;;;;5032239;28;20213;-56
2022/09/17 04:02:42;;;;;;;3.77;0.80;;;12.00;99.90;;;;;;5032264;28;20214;-56
2022/09/17 04:05:10;;;;;;;2.73;1.10;;;12.10;99.90;;;;;;5031390;28;20245;-55
2022/09/17 04:07:36;;;;;;;5.60;1.10;;;12.10;99.90;;;;;;5031639;28;20336;-56
2022/09/17 04:10:04;;;;;;;3.03;1.00;;;12.10;99.90;;;;;;5031522;28;20276;-56
2022/09/17 04:12:31;;;;;;;2.73;1.10;;;12.10;99.90;;;;;;5031254;28;20210;-56
2022/09/17 04:14:59;;;;;;;4.37;1.30;;;12.00;99.90;;;;;;5031167;28;20226;-56
2022/09/17 04:17:26;;;;;;;2.90;0.90;;;12.00;99.90;;;;;;5030830;28;20213;-56
2022/09/17 04:19:52;;;;;;;3.77;1.60;;;12.10;99.90;;;;;;5031439;28;20297;-56
2022/09/17 04:22:19;;;;;;;3.70;1.00;;;12.10;99.90;;;;;;5031420;28;21014;-56
2022/09/17 04:24:46;;;;;;;2.50;1.27;;;12.10;99.90;;;;;;5031821;28;20222;-56
2022/09/17 04:27:13;;;;;;;4.83;1.10;;;12.20;99.90;;;;;;5034229;28;20207;-56
2022/09/17 04:29:39;;;;;;;2.77;1.10;;;12.20;99.90;;;;;;5034888;28;20210;-56
2022/09/17 04:32:08;;;;;;;2.50;1.10;;;12.30;99.90;;;;;;5035180;28;20217;-56
2022/09/17 04:34:34;;;;;;;4.00;1.50;;;12.30;99.90;;;;;;5035072;28;20238;-56
2022/09/17 04:37:01;;;;;;;2.47;1.20;;;12.40;99.90;;;;;;5034204;28;20210;-56
2022/09/17 04:39:28;;;;;;;5.80;1.30;;;12.40;99.90;;;;;;5034744;28;20209;-56
2022/09/17 04:41:55;;;;;;;2.70;0.93;;;12.40;99.90;;;;;;5034721;28;20213;-56
2022/09/17 04:44:21;;;;;;;1.57;1.10;;;12.40;99.90;;;;;;5034692;28;20222;-56
2022/09/17 04:46:48;;;;;;;3.70;1.30;;;12.40;99.90;;;;;;5034149;28;20301;-56
2022/09/17 04:49:16;;;;;;;6.63;1.53;;;12.30;99.90;;;;;;5034546;28;20206;-56
2022/09/17 04:51:43;;;;;;;4.17;1.10;;;12.20;99.90;;;;;;5034682;28;20276;-56
2022/09/17 04:54:09;;;;;;;3.70;1.13;;;12.20;99.90;;;;;;5034316;28;20694;-56
2022/09/17 04:56:36;;;;;;;4.60;1.33;;;12.20;99.90;;;;;;5033891;28;20210;-56
2022/09/17 04:59:03;;;;;;;2.37;1.17;;;12.00;99.90;;;;;;5034761;28;20202;-56
2022/09/17 05:01:29;;;;;;;5.63;1.50;;;12.00;99.90;;;;;;5034521;28;20214;-56
2022/09/17 05:03:56;;;;;;;8.87;1.50;;;11.80;99.90;;;;;;5034356;28;20230;-56
2022/09/17 05:06:24;;;;;;;3.63;1.47;;;11.80;99.90;;;;;;5033695;28;20213;-56
2022/09/17 05:08:51;;;;;;;6.13;1.50;;;11.80;99.90;;;;;;5033723;28;20206;-56
2022/09/17 05:11:18;;;;;;;2.53;1.17;;;11.70;99.90;;;;;;5034046;28;20666;-56
2022/09/17 05:13:45;;;;;;;9.90;4.53;;;11.60;99.90;;;;;;5061827;23;20240;-57
2022/09/17 05:16:12;;;;;;;4.47;1.40;;;11.60;99.90;;;;;;5066939;28;20682;-57
2022/09/17 05:18:38;;;;;;;2.97;1.50;;;11.50;99.90;;;;;;5075875;28;20204;-56
2022/09/17 05:21:05;;;;;;;4.97;1.60;;;11.40;99.90;;;;;;5075589;28;20224;-58
2022/09/17 05:23:34;;;;;;;5.60;2.00;;;11.40;99.90;;;;;;5075675;28;20249;-58
2022/09/17 05:26:01;;;;;;;4.67;1.47;;;11.40;99.90;;;;;;5075337;28;20201;-58
2022/09/17 05:28:28;;;;;;;3.70;1.40;;;11.50;99.90;;;;;;5075159;28;20668;-58
2022/09/17 05:30:58;;;;;;;3.17;1.90;;;11.70;99.90;;;;;;5075187;28;20205;-58
2022/09/17 05:33:25;;;;;;;2.53;1.27;;;11.70;99.90;;;;;;5074916;28;20619;-58
2022/09/17 05:35:52;;;;;;;4.97;1.33;;;11.80;99.90;;;;;;5074510;28;20227;-57
2022/09/17 05:38:19;;;;;;;2.83;1.20;;;12.00;99.90;;;;;;5074366;28;20300;-58
2022/09/17 05:40:47;;;;;;;7.70;1.67;;;12.10;99.90;;;;;;5075140;28;20304;-59
2022/09/17 05:43:15;;;;;;;2.13;1.30;;;12.20;99.90;;;;;;5075409;28;20200;-58
2022/09/17 05:45:42;;;;;;;4.93;1.63;;;12.30;99.90;;;;;;5074685;28;20637;-58
2022/09/17 05:48:12;;;;;;;3.67;1.20;;;12.30;99.90;;;;;;5075312;28;20205;-57
2022/09/17 05:50:39;;;;;;;5.77;1.30;;;12.50;99.90;;;;;;5075332;28;20250;-58
2022/09/17 05:53:07;;;;;;;5.43;1.40;;;12.60;99.90;;;;;;5075487;28;20208;-59
2022/09/17 05:55:35;;;;;;;4.27;1.60;;;12.70;99.90;;;;;;5074930;28;20731;-58
2022/09/17 05:58:09;;;;;;;3.30;1.20;;;12.80;99.90;;;;;;5075343;28;20267;-58
2022/09/17 06:00:37;;;;;;;6.17;1.47;;;12.80;99.90;;;;;;5075437;28;20418;-58
2022/09/17 06:03:04;;;;;;;3.30;1.43;;;12.90;99.90;;;;;;5075169;28;20258;-58
2022/09/17 06:05:31;;;;;;;6.77;1.57;;;13.10;99.90;;;;;;5074462;28;20221;-58
2022/09/17 06:07:57;;;;;;;4.83;1.50;;;13.20;99.90;;;;;;5074329;28;20205;-58
2022/09/17 06:10:24;;;;;;;4.00;1.43;;;13.20;99.90;;;;;;5074431;28;20591;-58
2022/09/17 06:12:56;;;;;;;3.90;1.60;;;13.10;99.90;;;;;;5074520;28;20291;-57
2022/09/17 06:15:25;;;;;;;4.87;1.50;;;13.10;99.90;;;;;;5073552;28;20642;-57
2022/09/17 06:17:52;;;;;;;9.37;1.87;;;13.20;99.90;;;;;;5074522;28;20205;-57
2022/09/17 06:20:20;;;;;;;5.17;1.77;;;13.20;99.90;;;;;;5074094;28;20209;-58
2022/09/17 06:22:47;;;;;;;4.47;1.47;;;13.20;99.90;;;;;;5073996;28;20216;-59
2022/09/17 06:25:14;;;;;;;5.40;1.60;;;13.20;99.90;;;;;;5074054;28;20270;-57
2022/09/17 06:27:42;;;;;;;4.27;1.20;;;13.20;99.90;;;;;;5073616;28;20605;-57
2022/09/17 06:30:09;;;;;;;3.80;1.60;;;13.20;99.90;;;;;;5073849;28;20712;-57
2022/09/17 06:32:37;;;;;;;6.50;2.07;;;13.20;99.90;;;;;;5074148;28;20232;-57
2022/09/17 06:35:05;;;;;;;6.20;1.30;;;13.10;99.90;;;;;;5073991;28;20260;-57
2022/09/17 06:37:34;;;;;;;4.90;1.40;;;13.00;99.90;;;;;;5073622;28;20212;-56
2022/09/17 06:40:03;;;;;;;4.17;1.20;;;13.10;99.90;;;;;;5073671;28;20583;-56
2022/09/17 06:42:29;;;;;;;7.23;1.77;;;13.20;99.90;;;;;;5073131;28;20208;-58
2022/09/17 06:44:57;;;;;;;4.93;1.43;;;13.20;99.90;;;;;;5073216;28;20608;-57
2022/09/17 06:47:24;;;;;;;5.13;1.60;;;13.10;99.90;;;;;;5073066;28;20208;-57
2022/09/17 06:49:55;;;;;;;5.27;1.40;;;13.20;99.90;;;;;;5073531;28;20204;-58
2022/09/17 06:52:22;;;;;;;5.30;1.40;;;13.20;99.90;;;;;;5073493;28;20205;-57
2022/09/17 06:54:49;;;;;;;7.50;1.63;;;13.30;99.90;;;;;;5073296;28;20684;-57
2022/09/17 06:57:16;;;;;;;5.17;1.40;;;13.40;99.90;;;;;;5072993;28;20269;-57
2022/09/17 06:59:43;;;;;;;4.57;1.60;;;13.50;99.90;;;;;;5073623;28;20258;-58
2022/09/17 07:02:10;;;;;;;3.30;1.30;;;13.60;99.90;;;;;;5073489;28;20212;-57
2022/09/17 07:04:37;;;;;;;4.87;1.50;;;13.60;99.90;;;;;;5072871;28;20239;-56
2022/09/17 07:07:06;;;;;;;3.33;1.53;;;13.60;99.90;;;;;;5072653;28;20236;-57
2022/09/17 07:09:32;;;;;;;8.60;4.47;;;13.50;99.90;;;;;;5073078;28;20201;-57
2022/09/17 07:11:59;;;;;;;8.47;2.23;;;13.50;99.90;;;;;;5073271;28;20668;-57
2022/09/17 07:14:26;;;;;;;18.90;10.63;;;13.40;99.90;;;;;;5073436;28;20252;-58
2022/09/17 07:16:53;;;;;;;4.30;1.20;;;13.30;99.90;;;;;;5073461;28;20201;-57
2022/09/17 07:19:20;;;;;;;3.67;2.07;;;13.30;99.90;;;;;;5073389;28;20545;-58
2022/09/17 07:21:48;;;;;;;4.03;1.63;;;13.20;99.90;;;;;;5073265;28;20205;-57
2022/09/17 07:24:17;;;;;;;6.27;1.60;;;13.10;99.90;;;;;;5072897;28;20227;-57
2022/09/17 07:26:44;;;;;;;4.43;1.63;;;13.00;99.90;;;;;;5073273;28;20637;-59
2022/09/17 07:29:11;;;;;;;3.80;1.43;;;12.90;99.90;;;;;;5073193;28;20204;-59
2022/09/17 07:31:37;;;;;;;4.97;1.40;;;12.90;99.90;;;;;;5073609;28;20262;-60
2022/09/17 07:34:04;;;;;;;6.70;2.83;;;12.90;99.90;;;;;;5073800;28;20248;-59
2022/09/17 07:36:31;;;;;;;3.97;1.70;;;13.00;99.90;;;;;;5073537;28;20261;-59
2022/09/17 07:38:58;;;;;;;6.37;1.83;;;13.10;99.90;;;;;;5073798;28;20208;-59
2022/09/17 07:41:26;;;;;;;3.27;1.40;;;13.10;99.90;;;;;;5074316;28;20213;-59
2022/09/17 07:43:54;;;;;;;4.90;2.20;;;13.20;99.90;;;;;;5074264;28;20315;-59
2022/09/17 07:46:21;;;;;;;4.57;1.40;;;13.30;99.90;;;;;;5074004;28;20548;-59
2022/09/17 07:48:49;;;;;;;3.10;1.40;;;13.40;99.90;;;;;;5074220;28;20258;-59
2022/09/17 07:51:17;;;;;;;7.13;4.10;;;13.40;99.90;;;;;;5074010;28;20208;-59
2022/09/17 07:53:44;;;;;;;3.50;1.30;;;13.30;99.90;;;;;;5074893;28;20602;-61
2022/09/17 07:56:16;;;;;;;4.90;1.53;;;13.30;99.90;;;;;;5075391;28;20235;-59
2022/09/17 07:58:51;;;;;;;2.90;1.60;;;13.30;99.90;;;;;;5075022;28;20215;-60
2022/09/17 08:01:22;;;;;;;2.50;1.30;;;13.30;99.90;;;;;;5078028;28;20197;-59
2022/09/17 08:03:58;;;;;;;2.23;1.50;;;13.30;99.90;;;;;;5079484;28;20229;-60
2022/09/17 08:06:27;;;;;;;3.23;1.40;;;13.30;99.90;;;;;;5078546;28;20208;-59
2022/09/17 08:09:01;;;;;;;3.70;1.60;;;13.40;99.90;;;;;;5078576;28;20239;-59
2022/09/17 08:11:31;;;;;;;3.53;1.23;;;13.50;99.90;;;;;;5078183;28;20216;-58
2022/09/17 08:14:00;;;;;;;2.83;1.30;;;13.50;99.90;;;;;;5078039;28;20731;-59
2022/09/17 08:16:26;;;;;;;6.20;1.60;;;13.40;99.90;;;;;;5076696;28;20702;-58
2022/09/17 08:19:02;;;;;;;3.10;1.60;;;13.50;99.90;;;;;;5077291;28;20221;-59
2022/09/17 08:21:30;;;;;;;6.87;4.40;;;13.50;99.90;;;;;;5082181;28;20213;-63
2022/09/17 08:23:58;;;;;;;3.97;2.07;;;13.60;99.90;;;;;;5081039;28;20225;-62
2022/09/17 08:26:33;;;;;;;3.83;1.53;;;13.80;99.90;;;;;;5080901;28;20205;-59
2022/09/17 08:29:10;;;;;;;5.93;1.50;;;13.90;99.90;;;;;;5078115;28;20212;-57
2022/09/17 08:31:37;;;;;;;5.13;1.90;;;14.10;99.90;;;;;;5077664;28;20809;-57
2022/09/17 08:34:10;;;;;;;6.00;1.83;;;14.20;99.90;;;;;;5077752;28;20249;-56
2022/09/17 08:36:37;;;;;;;4.10;1.47;;;14.30;99.90;;;;;;5076584;28;20224;-56
2022/09/17 08:39:04;;;;;;;4.37;1.73;;;14.40;99.90;;;;;;5076049;28;20216;-56
2022/09/17 08:41:42;;;;;;;3.77;1.57;;;14.40;99.90;;;;;;5076036;28;20569;-56
2022/09/17 08:44:21;;;;;;;3.93;1.77;;;14.40;99.90;;;;;;5076321;28;20246;-56
2022/09/17 08:46:51;;;;;;;3.90;1.73;;;14.60;99.90;;;;;;5075508;28;20201;-55
2022/09/17 08:49:28;;;;;;;6.73;1.93;;;15.00;99.90;;;;;;5075828;28;20468;-55
2022/09/17 08:52:25;;;;;;;3.30;1.63;;;15.30;99.90;;;;;;5075634;28;20232;-55
2022/09/17 08:55:03;;;;;;;4.33;1.97;;;15.70;99.90;;;;;;5050415;28;20723;-56
2022/09/17 08:57:40;;;;;;;5.13;1.50;;;15.90;99.90;;;;;;5075822;28;20204;-56
2022/09/17 09:00:12;;;;;;;6.67;1.63;;;16.20;99.90;;;;;;5075898;28;20244;-56
2022/09/17 09:02:56;;;;;;;9.43;1.93;;;16.60;99.90;;;;;;5075820;28;20241;-56
2022/09/17 09:05:28;;;;;;;4.43;1.50;;;16.80;99.90;;;;;;5075853;28;20248;-56
2022/09/17 09:08:02;;;;;;;6.73;1.70;;;17.10;99.90;;;;;;5075594;28;20238;-55
2022/09/17 09:10:36;;;;;;;9.23;3.63;;;17.20;99.90;;;;;;5075499;28;20615;-56
2022/09/17 09:13:05;;;;;;;6.63;1.90;;;17.00;99.90;;;;;;5075174;28;20204;-56
2022/09/17 09:15:38;;;;;;;5.87;1.77;;;16.90;99.90;;;;;;5075569;28;20675;-56
2022/09/17 09:18:19;;;;;;;3.45;1.55;;;17.00;99.90;;;;;;5076056;28;20254;-56
2022/09/17 09:21:04;;;;;;;8.32;2.00;;;17.20;99.90;;;;;;5075980;28;20208;-57
2022/09/17 09:23:40;;;;;;;5.38;1.77;;;17.50;99.90;;;;;;5076241;28;20217;-57
2022/09/17 09:26:16;;;;;;;8.68;1.88;;;17.60;99.90;;;;;;5074999;28;20661;-55
2022/09/17 09:28:57;;;;;;;5.65;1.80;;;17.70;99.90;;;;;;5075803;28;20213;-56
2022/09/17 09:31:55;;;;;;;8.25;2.15;;;17.40;99.90;;;;;;5076292;28;20228;-55
2022/09/17 09:34:23;;;;;;;2.97;1.40;;;17.10;99.90;;;;;;5076640;28;20225;-56
2022/09/17 09:36:51;;;;;;;5.72;1.75;;;17.00;99.90;;;;;;5076496;28;20239;-56
2022/09/17 09:39:24;;;;;;;5.70;1.83;;;17.30;99.90;;;;;;5075775;28;20228;-57
2022/09/17 09:41:56;;;;;;;6.20;1.88;;;17.60;99.90;;;;;;5075693;28;20259;-57
2022/09/17 09:44:28;;;;;;;6.70;1.70;;;17.50;99.90;;;;;;5076447;28;20282;-56
2022/09/17 09:47:23;;;;;;;7.30;1.70;;;17.20;99.90;;;;;;5075412;28;20266;-57
2022/09/17 09:50:03;;;;;;;5.97;1.87;;;17.00;99.90;;;;;;5075730;28;20258;-57
2022/09/17 09:52:47;;;;;;;8.23;2.00;;;16.90;99.90;;;;;;5075465;28;20193;-57
2022/09/17 09:55:39;;;;;;;4.77;1.70;;;16.90;99.90;;;;;;5075753;28;20684;-57
2022/09/17 09:58:15;;;;;;;6.80;2.50;;;17.00;99.90;;;;;;5074599;28;20680;-57
2022/09/17 10:00:43;;;;;;;7.53;2.97;;;17.30;99.90;;;;;;5074999;28;20583;-56
2022/09/17 10:03:16;;;;;;;6.10;2.08;;;17.10;99.90;;;;;;5074770;28;20200;-56
2022/09/17 10:06:02;;;;;;;6.03;1.85;;;16.90;99.90;;;;;;5074502;28;20205;-59
2022/09/17 10:08:31;;;;;;;10.07;2.07;;;16.70;99.90;;;;;;5073346;28;20296;-56
2022/09/17 10:11:04;;;;;;;11.33;2.27;;;16.50;99.90;;;;;;5074214;28;20537;-57
2022/09/17 10:13:39;;;;;;;6.22;2.00;;;16.30;99.90;;;;;;5074487;28;20205;-57
2022/09/17 10:16:17;;;;;;;7.82;1.65;;;16.40;99.90;;;;;;5073757;28;20228;-56
2022/09/17 10:18:46;;;;;;;4.30;1.60;;;16.30;99.90;;;;;;5073889;28;20239;-55
2022/09/17 10:21:20;;;;;;;5.07;1.67;;;16.50;99.90;;;;;;5073444;28;20203;-56
2022/09/17 10:23:47;;;;;;;6.43;1.70;;;16.60;99.90;;;;;;5073290;28;20316;-56
2022/09/17 10:26:22;;;;;;;7.27;1.57;;;16.50;99.90;;;;;;5073102;28;20566;-55
2022/09/17 10:28:51;;;;;;;5.63;1.80;;;16.60;99.90;;;;;;5073743;28;20680;-56
2022/09/17 10:31:18;;;;;;;4.00;1.40;;;16.90;99.90;;;;;;5073217;28;20212;-56
2022/09/17 10:33:56;;;;;;;4.25;1.65;;;17.40;99.90;;;;;;5073222;28;20224;-56
2022/09/17 10:36:39;;;;;;;7.60;2.67;;;17.90;99.90;;;;;;5073147;28;20232;-56
2022/09/17 10:39:32;;;;;;;5.32;1.88;;;18.10;99.90;;;;;;5073115;28;20287;-56
2022/09/17 10:42:02;;;;;;;4.30;1.85;;;18.20;99.90;;;;;;5072903;28;20589;-56
2022/09/17 10:44:30;;;;;;;3.95;1.58;;;18.30;99.90;;;;;;5073369;28;20784;-56
2022/09/17 10:47:04;;;;;;;5.15;1.60;;;18.40;99.90;;;;;;5072625;28;20577;-57
2022/09/17 10:49:39;;;;;;;4.85;1.60;;;18.40;99.90;;;;;;5073396;28;20262;-56
2022/09/17 10:52:11;;;;;;;3.25;1.50;;;18.70;99.90;;;;;;5072999;28;20231;-56
2022/09/17 10:55:16;;;;;;;3.70;1.50;;;18.70;99.90;;;;;;5073184;28;20227;-57
2022/09/17 10:58:03;;;;;;;6.20;1.45;;;18.80;99.90;;;;;;4971654;28;20239;-56
2022/09/17 11:00:38;;;;;;;8.00;3.63;;;19.00;99.90;;;;;;4972258;28;20219;-57
2022/09/17 11:03:42;;;;;;;3.83;1.45;;;19.10;99.90;;;;;;5041037;28;20224;-57
2022/09/17 11:06:37;;;;;;;7.32;1.60;;;19.40;99.90;;;;;;5072908;28;20209;-57
2022/09/17 11:09:14;;;;;;;4.72;1.50;;;19.40;99.90;;;;;;5073203;28;20205;-55
2022/09/17 11:11:55;;;;;;;4.97;1.95;;;19.40;99.90;;;;;;5072925;28;20236;-55
2022/09/17 11:14:40;;;;;;;4.88;1.60;;;19.40;99.90;;;;;;5085072;22;20315;-55
2022/09/17 11:17:18;;;;;;;4.60;1.30;;;19.50;99.90;;;;;;5062717;28;20722;-56
2022/09/17 11:19:54;;;;;;;4.25;1.60;;;19.80;99.90;;;;;;5071970;28;20234;-55
2022/09/17 11:22:31;;;;;;;3.58;1.10;;;20.10;99.90;;;;;;5072106;28;20633;-56
2022/09/17 11:25:24;;;;;;;3.30;1.35;;;19.90;99.90;;;;;;5071900;28;20734;-56
2022/09/17 11:28:01;;;;;;;6.22;1.23;;;19.80;99.90;;;;;;5071539;28;20726;-57
2022/09/17 11:30:35;;;;;;;3.85;1.17;;;19.90;99.90;;;;;;5072026;28;20211;-55
2022/09/17 11:33:27;;;;;;;3.75;1.48;;;19.90;99.90;;;;;;5072122;28;20215;-56
2022/09/17 11:35:59;;;;;;;3.00;1.35;;;19.80;99.90;;;;;;5070385;28;20247;-56
2022/09/17 11:38:33;;;;;;;2.72;1.40;;;19.70;99.90;;;;;;5071950;28;20295;-56
2022/09/17 11:41:04;;;;;;;4.57;1.58;;;19.40;99.90;;;;;;5072003;28;20266;-55
2022/09/17 11:43:34;;;;;;;4.85;1.40;;;18.80;99.90;;;;;;5070799;28;20201;-56
2022/09/17 11:46:07;;;;;;;4.68;1.42;;;18.20;99.90;;;;;;5071131;28;20623;-56
2022/09/17 11:48:37;;;;;;;10.35;1.63;;;17.80;99.90;;;;;;5071607;28;20599;-56
2022/09/17 11:51:15;;;;;;;6.80;2.20;;;17.50;99.90;;;;;;5071500;28;20205;-56
2022/09/17 11:53:48;;;;;;;7.93;2.13;;;17.30;99.90;;;;;;5071681;28;20267;-55
2022/09/17 11:56:21;;;;;;;7.05;1.58;;;17.30;99.90;;;;;;5070958;28;20311;-56
2022/09/17 11:58:50;;;;;;;4.90;1.23;;;17.30;99.90;;;;;;5071561;28;20641;-56
2022/09/17 12:01:26;;;;;;;2.03;0.90;;;17.40;99.90;;;;;;5071539;28;20216;-55
2022/09/17 12:03:58;;;;;;;1.73;0.90;;;17.40;99.90;;;;;;5071712;28;20303;-56
2022/09/17 12:06:35;;;;;;;4.13;1.33;;;17.60;99.90;;;;;;5071101;28;20263;-56
2022/09/17 12:09:10;;;;;;;3.80;1.17;;;17.90;99.90;;;;;;5071785;28;20209;-57
2022/09/17 12:11:42;;;;;;;3.72;1.38;;;18.10;99.90;;;;;;5071640;28;20205;-56
2022/09/17 12:14:18;;;;;;;3.53;1.40;;;18.30;99.90;;;;;;5071258;28;20760;-56
2022/09/17 12:16:49;;;;;;;3.70;1.45;;;18.60;99.90;;;;;;5071079;28;20216;-56
2022/09/17 12:19:22;;;;;;;5.70;1.83;;;18.70;99.90;;;;;;5071449;28;20213;-55
2022/09/17 12:21:52;;;;;;;4.13;1.33;;;18.70;99.90;;;;;;5071802;28;20580;-55
2022/09/17 12:24:23;;;;;;;5.18;1.30;;;18.90;99.90;;;;;;5071222;28;20298;-57
2022/09/17 12:27:03;;;;;;;3.15;1.00;;;19.00;99.90;;;;;;5070873;28;20216;-56
2022/09/17 12:29:47;;;;;;;2.80;1.05;;;19.00;99.90;;;;;;5071404;28;20681;-56
2022/09/17 12:32:29;;;;;;;2.45;1.05;;;19.10;99.90;;;;;;5071326;28;20286;-56
2022/09/17 12:35:01;;;;;;;1.67;0.80;;;19.20;99.90;;;;;;5071021;28;20259;-55
2022/09/17 12:37:36;;;;;;;4.32;1.00;;;19.30;99.90;;;;;;5070612;28;20225;-55
2022/09/17 12:40:18;;;;;;;2.50;1.20;;;19.30;99.90;;;;;;5071362;28;20254;-56
2022/09/17 12:42:57;;;;;;;2.60;1.08;;;19.20;99.90;;;;;;5071118;28;20209;-56
2022/09/17 12:45:42;;;;;;;2.72;1.02;;;19.20;99.90;;;;;;5071095;28;20365;-56
2022/09/17 12:48:40;;;;;;;3.28;1.05;;;19.00;99.90;;;;;;5074087;28;20201;-56
2022/09/17 12:51:18;;;;;;;4.20;1.40;;;18.90;99.90;;;;;;5074279;28;20308;-56
2022/09/17 12:53:55;;;;;;;4.50;1.20;;;19.10;99.90;;;;;;5074594;28;20212;-56
2022/09/17 12:56:38;;;;;;;2.55;0.93;;;19.60;99.90;;;;;;5073700;28;20732;-55
2022/09/17 12:59:09;;;;;;;3.47;1.13;;;19.90;99.90;;;;;;5074411;28;20213;-55
2022/09/17 13:01:43;;;;;;;4.60;1.70;;;20.20;99.90;;;;;;5074404;28;20200;-55
2022/09/17 13:04:21;;;;;;;3.90;1.17;;;20.30;99.90;;;;;;5074129;28;20704;-56
2022/09/17 13:07:14;;;;;;;2.03;0.90;;;20.40;99.90;;;;;;5073779;28;20273;-56
2022/09/17 13:10:02;;;;;;;3.58;1.30;;;20.10;99.90;;;;;;5074423;28;20233;-56
2022/09/17 13:12:37;;;;;;;2.45;0.63;;;19.80;99.90;;;;;;5074308;28;20626;-56